Skip to main content.
Our real time weather data display below is updated continuously via our 24/7 live data feed.
 TIME   TEMPERATURE   WINDSPEED   DIRECTION   HUMIDITY   BAROMETER   RAINFALL 
7:30 16.0°C (60.8°F) 38.9 kmh (24.2 mph) NE 87% 1006.1hPa (29.71 inHg) 18.0mm (0.71 in.)
6:30 15.0°C (59.0 °F) 33.3 kmh (20.7 mph) NNW 93% 1005.1hPa (29.68 inHg) 18.0mm (0.71 in.)
5:30 15.0°C (59.0 °F) 25.9 kmh (16.1 mph) NNW 87% 1006.1hPa (29.71 inHg) 11.0mm (0.43 in.)
4:30 15.0°C (59.0 °F) 25.9 kmh (16.1 mph) N 93% 1006.1hPa (29.71 inHg) 11.0mm (0.43 in.)
3:30 15.0°C (59.0 °F) 29.6 kmh (18.4 mph) NNW 87% 1007.1hPa (29.74 inHg) 11.0mm (0.43 in.)
2:30 15.0°C (59.0 °F) 31.5 kmh (19.6 mph) N 87% 1007.1hPa (29.74 inHg) 11.0mm (0.43 in.)
1:30 14.0°C (57.2 °F) 29.6 kmh (18.4 mph) NNW 93% 1007.1hPa (29.74 inHg) 11.0mm (0.43 in.)
0:30 15.0°C (59.0 °F) 25.9 kmh (16.1 mph) N 82% 1008.1hPa (29.77 inHg) 11.0mm (0.43 in.)
23:29 15.0°C (59.0 °F) 20.4 kmh (12.7 mph) NNE 87% 1008.1hPa (29.77 inHg) 11.0mm (0.43 in.)
22:29 14.0°C (57.2 °F) 11.1 kmh (6.9 mph) NNW 93% 1008.1hPa (29.77 inHg) 11.0mm (0.43 in.)
21:29 14.0°C (57.2 °F) 16.7 kmh (10.4 mph) WNW 87% 1008.1hPa (29.77 inHg) 11.0mm (0.43 in.)
20:29 14.0°C (57.2 °F) 16.7 kmh (10.4 mph) NW 87% 1008.1hPa (29.77 inHg) 11.0mm (0.43 in.)
19:29 14.0°C (57.2 °F) 13.0 kmh (8.1 mph) NW 87% 1009.1hPa (29.80 inHg) 11.0mm (0.43 in.)
18:29 15.0°C (59.0 °F) 14.8 kmh (9.2 mph) WNW 82% 1009.1hPa (29.80 inHg) 11.0mm (0.43 in.)
17:29 15.0°C (59.0 °F) 18.5 kmh (11.5 mph) NW 82% 1010.2hPa (29.83 inHg) 11.0mm (0.43 in.)
16:29 15.0°C (59.0 °F) 14.8 kmh (9.2 mph) WNW 93% 1010.2hPa (29.83 inHg) 11.0mm (0.43 in.)
15:29 15.0°C (59.0 °F) 14.8 kmh (9.2 mph) WNW 93% 1010.8hPa (29.85 inHg) 10.0mm (0.39 in.)
14:29 15.0°C (59.0 °F) 25.9 kmh (16.1 mph) NW 93% 1010.2hPa (29.83 inHg) 7.0mm (0.28 in.)
13:29 16.0°C (60.8 °F) 27.8 kmh (17.3 mph) NW 82% 1011.9hPa (29.88 inHg) 7.0mm (0.28 in.)
12:29 18.0°C (64.4 °F) 7.4 kmh (4.6 mph) NW 82% 1011.9hPa (29.88 inHg) 7.0mm (0.28 in.)
11:29 15.0°C (59.0 °F) 9.3 kmh (5.8 mph) E 100% 1012.9hPa (29.91 inHg) 7.0mm (0.28 in.)
10:29 15.0°C (59.0 °F) 11.1 kmh (6.9 mph) W 93% 1013.9hPa (29.94 inHg) 7.0mm (0.28 in.)
9:29 15.0°C (59.0 °F) 11.1 kmh (6.9 mph) W 87% 1013.9hPa (29.94 inHg) 4.0mm (0.16 in.)
8:29 18.0°C (64.4 °F) 25.9 kmh (16.1 mph) S 88% 1013.9hPa (29.94 inHg) 3.0mm (0.12 in.)